createdAt,value
2023-05-14T10:31:40.809Z,0
2023-05-14T10:32:23.863Z,0
2023-05-14T10:35:27.925Z,0
2023-05-14T10:36:59.222Z,0
2023-05-14T10:55:31.708Z,0
2023-05-14T10:58:25.109Z,0
2023-05-14T10:59:50.705Z,0
2023-05-14T11:00:23.557Z,0
2023-05-14T11:01:26.911Z,0
2023-05-14T11:02:22.620Z,0
2023-05-14T11:03:30.037Z,0
2023-05-14T11:04:21.422Z,0
2023-05-14T11:05:24.274Z,0
2023-05-14T11:06:22.280Z,0
2023-05-14T11:07:30.894Z,0
2023-05-14T11:08:39.940Z,0
2023-05-14T11:09:37.645Z,0
2023-05-14T11:10:32.234Z,0
2023-05-14T11:11:25.287Z,0
2023-05-14T11:12:32.186Z,0
2023-05-14T11:13:20.032Z,0
2023-05-14T11:14:30.177Z,0
2023-05-14T11:15:26.233Z,0
2023-05-14T11:16:23.942Z,0
2023-05-14T11:17:32.088Z,0
2023-05-14T11:18:31.507Z,0
2023-05-14T11:19:24.222Z,0
2023-05-14T11:20:20.423Z,0
2023-05-14T11:21:22.291Z,0
2023-05-14T11:22:26.206Z,2
2023-05-14T11:23:30.165Z,1
2023-05-14T11:24:33.865Z,0
2023-05-14T11:25:28.113Z,0
2023-05-14T11:26:28.478Z,0
2023-05-14T11:27:20.845Z,0
2023-05-14T11:28:22.359Z,4
2023-05-14T11:29:27.364Z,3
2023-05-14T11:30:22.612Z,5
2023-05-14T11:31:32.225Z,1
2023-05-14T11:32:28.085Z,0
2023-05-14T11:33:30.486Z,1
2023-05-14T11:34:21.818Z,0
2023-05-14T11:35:29.958Z,0
2023-05-14T11:36:26.129Z,2
2023-05-14T11:37:22.248Z,1
2023-05-14T11:38:32.449Z,0
2023-05-14T11:39:29.145Z,1
2023-05-14T11:40:24.850Z,3
2023-05-14T11:41:21.726Z,4
2023-05-14T11:42:20.518Z,2
2023-05-14T11:43:27.079Z,0
2023-05-14T11:44:22.168Z,0
2023-05-14T11:45:22.468Z,2
2023-05-14T11:46:29.734Z,1
2023-05-14T11:47:24.104Z,3
2023-05-14T11:48:21.960Z,1
2023-05-14T11:49:25.082Z,0
2023-05-14T11:50:26.873Z,0
2023-05-14T11:51:24.177Z,0
2023-05-14T11:52:32.335Z,0
2023-05-14T11:53:28.113Z,0
2023-05-14T11:54:26.064Z,0
2023-05-14T11:55:20.185Z,0
2023-05-14T11:56:20.912Z,0
2023-05-14T11:57:22.350Z,0
2023-05-14T11:58:22.032Z,1
2023-05-14T11:59:22.900Z,4
2023-05-14T12:00:28.454Z,1
2023-05-14T12:01:27.582Z,4
2023-05-14T12:02:20.215Z,3
2023-05-14T12:03:30.615Z,4
2023-05-14T12:04:28.286Z,2
2023-05-14T12:05:21.946Z,1
2023-05-14T12:06:26.529Z,0
2023-05-14T12:07:46.460Z,2
2023-05-14T12:08:25.671Z,3
2023-05-14T12:09:20.026Z,0
2023-05-14T12:10:30.256Z,0
2023-05-14T12:11:27.065Z,1
2023-05-14T12:12:23.580Z,0
2023-05-14T12:13:23.131Z,0
2023-05-14T12:14:22.016Z,0
2023-05-14T12:15:24.425Z,0
2023-05-14T12:16:37.763Z,0
2023-05-14T12:17:30.182Z,0
2023-05-14T12:18:27.674Z,0
2023-05-14T12:19:22.500Z,1
2023-05-14T12:20:21.951Z,4
2023-05-14T12:21:28.175Z,3
2023-05-14T12:22:24.250Z,2
2023-05-14T12:23:19.859Z,2
2023-05-14T12:24:30.337Z,3
2023-05-14T12:25:28.143Z,2
2023-05-14T12:26:36.045Z,1
2023-05-14T12:27:24.982Z,0
2023-05-14T12:28:30.273Z,0
2023-05-14T12:29:24.936Z,0
2023-05-14T12:30:22.096Z,0
2023-05-14T12:31:31.918Z,0
2023-05-14T12:32:26.312Z,1
2023-05-14T12:33:24.028Z,3
2023-05-14T12:34:28.875Z,5
2023-05-14T12:35:22.895Z,4
2023-05-14T12:36:28.921Z,2
2023-05-14T12:37:19.831Z,0
2023-05-14T12:38:30.823Z,2
2023-05-14T12:39:27.692Z,1
2023-05-14T12:40:22.343Z,3
2023-05-14T12:41:21.907Z,3
2023-05-14T12:42:28.144Z,4
2023-05-14T12:43:24.169Z,5
2023-05-14T12:44:22.881Z,5
2023-05-14T12:45:30.694Z,2
2023-05-14T12:46:27.419Z,1
2023-05-14T12:47:22.303Z,2
2023-05-14T12:48:32.822Z,4
2023-05-14T12:49:32.710Z,3
2023-05-14T12:50:24.279Z,1
2023-05-14T12:51:20.258Z,2
2023-05-14T12:52:36.168Z,2
2023-05-14T12:53:26.063Z,2
2023-05-14T12:54:22.152Z,2
2023-05-14T12:55:32.503Z,2
2023-05-14T12:56:29.460Z,1
2023-05-14T12:57:24.078Z,1
2023-05-14T12:58:22.445Z,5
2023-05-14T12:59:25.278Z,3
2023-05-14T13:00:26.438Z,0
2023-05-14T13:01:22.796Z,0
2023-05-14T13:02:42.169Z,0
2023-05-14T13:03:27.980Z,1
2023-05-14T13:04:25.591Z,5
2023-05-14T13:05:20.212Z,4
2023-05-14T13:06:30.605Z,4
2023-05-14T13:07:22.416Z,3
2023-05-14T13:08:22.669Z,2
2023-05-14T13:09:19.655Z,3
2023-05-14T13:10:29.169Z,3
2023-05-14T13:11:24.517Z,1
2023-05-14T13:12:22.038Z,0
2023-05-14T13:13:21.934Z,0
2023-05-14T13:14:26.026Z,0
2023-05-14T13:15:26.590Z,1
2023-05-14T13:16:33.231Z,4
2023-05-14T13:17:28.418Z,5
2023-05-14T13:18:25.894Z,2
2023-05-14T13:19:20.254Z,0
2023-05-14T13:20:26.787Z,4
2023-05-14T13:21:26.341Z,5
2023-05-14T13:22:23.419Z,4
2023-05-14T13:23:33.448Z,3
2023-05-14T13:24:28.326Z,4
2023-05-14T13:25:25.934Z,3
2023-05-14T13:26:21.701Z,0
2023-05-14T13:27:30.316Z,6
2023-05-14T13:28:23.735Z,6
2023-05-14T13:29:22.459Z,1
2023-05-14T13:30:22.250Z,1
2023-05-14T13:31:28.511Z,2
2023-05-14T13:32:27.648Z,2
2023-05-14T13:33:20.512Z,4
2023-05-14T13:34:30.945Z,3
2023-05-14T13:35:28.976Z,4
2023-05-14T13:36:22.364Z,3
2023-05-14T13:37:26.465Z,2
2023-05-14T13:38:28.166Z,4
2023-05-14T13:39:24.275Z,3
2023-05-14T13:40:21.610Z,4
2023-05-14T13:41:31.713Z,5
2023-05-14T13:42:26.800Z,3
2023-05-14T13:43:26.037Z,2
2023-05-14T13:44:28.306Z,2
2023-05-14T13:45:21.680Z,2
2023-05-14T13:46:24.324Z,3
2023-05-14T13:47:20.625Z,4
2023-05-14T13:48:30.021Z,3
2023-05-14T13:49:29.836Z,3
2023-05-14T13:50:22.254Z,5
2023-05-14T13:51:24.021Z,3
2023-05-14T13:52:27.053Z,4
2023-05-14T13:53:24.349Z,4
2023-05-14T13:54:20.628Z,5
2023-05-14T13:55:31.627Z,2
2023-05-14T13:56:27.208Z,0
2023-05-14T13:57:23.827Z,1
2023-05-14T13:58:26.880Z,0
2023-05-14T13:59:29.186Z,2
2023-05-14T14:00:25.215Z,3
2023-05-14T14:01:20.328Z,6
2023-05-14T14:02:33.542Z,4
2023-05-14T14:03:25.998Z,4
2023-05-14T14:04:23.937Z,3
2023-05-14T14:05:32.684Z,3
2023-05-14T14:06:23.357Z,2
2023-05-14T14:07:26.115Z,2
2023-05-14T14:08:23.746Z,1
2023-05-14T14:09:31.572Z,3
2023-05-14T14:10:25.980Z,2
2023-05-14T14:11:23.992Z,2
2023-05-14T14:12:37.210Z,1
2023-05-14T14:13:27.947Z,1
2023-05-14T14:14:22.217Z,2
2023-05-14T14:15:25.518Z,3
2023-05-14T14:16:31.242Z,3
2023-05-14T14:17:29.635Z,2
2023-05-14T14:18:22.071Z,3
2023-05-14T14:19:32.311Z,4
2023-05-14T14:20:30.199Z,5
2023-05-14T14:21:25.012Z,4
2023-05-14T14:22:21.177Z,4
2023-05-14T14:23:20.307Z,2
2023-05-14T14:24:26.468Z,4
2023-05-14T14:25:23.827Z,4
2023-05-14T14:26:33.909Z,3
2023-05-14T14:27:36.334Z,1
2023-05-14T14:28:31.285Z,1
2023-05-14T14:29:22.197Z,2
2023-05-14T14:30:24.027Z,2
2023-05-14T14:31:27.719Z,2
2023-05-14T14:32:22.144Z,0
2023-05-14T14:33:32.215Z,2
2023-05-14T14:34:31.130Z,2
2023-05-14T14:35:24.717Z,1
2023-05-14T14:36:21.348Z,0
2023-05-14T14:37:32.302Z,0
2023-05-14T14:38:21.209Z,1
2023-05-14T14:39:22.963Z,1
2023-05-14T14:40:35.612Z,1
2023-05-14T14:41:28.434Z,3
2023-05-14T14:42:39.951Z,2
2023-05-14T14:43:22.117Z,1
2023-05-14T14:44:23.402Z,0
2023-05-14T14:45:25.617Z,1
2023-05-14T14:46:22.498Z,5
2023-05-14T14:47:32.206Z,5
2023-05-14T14:48:30.694Z,3
2023-05-14T14:49:24.279Z,6
2023-05-14T14:50:22.048Z,2
2023-05-14T14:51:31.248Z,3
2023-05-14T14:52:20.581Z,1
2023-05-14T14:53:23.545Z,1
2023-05-14T14:54:33.618Z,2
2023-05-14T14:55:28.221Z,0
2023-05-14T14:56:25.694Z,0
2023-05-14T14:57:20.347Z,0
2023-05-14T14:58:32.946Z,0
2023-05-14T14:59:29.375Z,0
2023-05-14T15:00:22.516Z,0
2023-05-14T15:01:32.872Z,1
2023-05-14T15:02:46.630Z,2
2023-05-14T15:03:26.009Z,1
2023-05-14T15:04:20.322Z,0
2023-05-14T15:05:30.030Z,2
2023-05-14T15:06:30.138Z,4
2023-05-14T15:07:22.362Z,4
2023-05-14T15:08:24.389Z,1
2023-05-14T15:09:28.365Z,2
2023-05-14T15:10:25.683Z,0
2023-05-14T15:11:20.584Z,0
2023-05-14T15:12:30.073Z,3
2023-05-14T15:13:28.161Z,6
2023-05-14T15:14:22.296Z,5
2023-05-14T15:15:27.286Z,2
2023-05-14T15:16:20.150Z,4
2023-05-14T15:17:24.143Z,3
2023-05-14T15:18:22.101Z,1
2023-05-14T15:19:54.857Z,2
2023-05-14T15:20:27.961Z,1
2023-05-14T15:21:22.121Z,1
2023-05-14T15:22:24.126Z,2
2023-05-14T15:23:25.310Z,2
2023-05-14T15:24:24.059Z,2
2023-05-14T15:25:20.137Z,0
2023-05-14T15:26:30.573Z,2
2023-05-14T15:27:27.972Z,1
2023-05-14T15:28:22.214Z,2
2023-05-14T15:29:27.828Z,2
2023-05-14T15:30:22.329Z,3
2023-05-14T15:31:21.581Z,5
2023-05-14T15:32:20.097Z,4
2023-05-14T15:33:31.726Z,2
2023-05-14T15:34:27.462Z,1
2023-05-14T15:35:24.260Z,2
2023-05-14T15:36:31.835Z,2
2023-05-14T15:37:24.707Z,5
2023-05-14T15:38:24.993Z,7
2023-05-14T15:39:21.459Z,5
2023-05-14T15:40:30.316Z,3
2023-05-14T15:41:26.475Z,6
2023-05-14T15:42:25.696Z,6
2023-05-14T15:43:33.501Z,5
2023-05-14T15:44:28.863Z,2
2023-05-14T15:45:24.721Z,2
2023-05-14T15:46:22.268Z,10
2023-05-14T15:47:30.217Z,7
2023-05-14T15:48:26.556Z,5
2023-05-14T15:49:23.978Z,5
2023-05-14T15:50:33.990Z,5
2023-05-14T15:51:28.346Z,7
2023-05-14T15:52:23.298Z,6
2023-05-14T15:53:20.470Z,5
2023-05-14T15:54:30.196Z,7
2023-05-14T15:55:27.506Z,6
2023-05-14T15:56:38.494Z,5
2023-05-14T15:57:47.820Z,5
2023-05-14T15:58:30.408Z,5
2023-05-14T15:59:25.204Z,6
2023-05-14T16:00:20.594Z,5
2023-05-14T16:01:22.871Z,2
2023-05-14T16:02:44.811Z,0
2023-05-14T16:03:36.100Z,1
2023-05-14T16:04:33.824Z,2
2023-05-14T16:05:43.957Z,1
2023-05-14T16:06:25.975Z,1
2023-05-14T16:07:20.671Z,0
2023-05-14T16:08:20.697Z,2
2023-05-14T16:09:21.199Z,1
2023-05-14T16:11:32.572Z,0
2023-05-14T16:12:30.420Z,1
2023-05-14T16:13:40.608Z,0
2023-05-14T16:17:56.345Z,3
2023-05-14T16:19:52.835Z,3
2023-05-14T16:21:21.460Z,0
2023-05-14T16:22:30.179Z,0
2023-05-14T16:23:23.787Z,0
2023-05-14T16:24:21.189Z,0
2023-05-14T16:26:02.482Z,2
2023-05-14T16:26:24.918Z,3
2023-05-14T16:27:24.126Z,3
2023-05-14T16:28:41.315Z,2
2023-05-14T16:30:26.516Z,0
2023-05-14T16:32:31.751Z,2
